createdAt,value
2023-04-05T00:02:01.684Z,19.00
2023-04-05T00:07:09.727Z,22.55
2023-04-05T00:12:13.694Z,21.77
2023-04-05T00:17:19.171Z,20.73
2023-04-05T00:22:25.675Z,20.38
2023-04-05T00:27:30.072Z,23.48
2023-04-05T00:32:35.491Z,20.77
2023-04-05T00:37:39.607Z,24.40
2023-04-05T00:42:43.519Z,21.00
2023-04-05T00:47:49.069Z,22.92
2023-04-05T00:52:53.064Z,24.00
2023-04-05T00:57:57.314Z,20.75
2023-04-05T01:03:04.378Z,20.60
2023-04-05T01:08:16.205Z,23.58
2023-04-05T01:13:20.570Z,22.70
2023-04-05T01:18:31.313Z,17.98
2023-04-05T01:23:45.413Z,20.38
2023-04-05T01:29:32.284Z,22.23
2023-04-05T01:34:45.676Z,22.65
2023-04-05T01:39:50.712Z,19.00
2023-04-05T01:44:56.133Z,25.80
2023-04-05T01:50:01.679Z,20.85
2023-04-05T02:00:11.014Z,17.13
2023-04-05T02:05:19.308Z,22.13
2023-04-05T02:15:27.862Z,20.55
2023-04-05T02:20:33.700Z,21.92
2023-04-05T02:30:42.031Z,21.30
2023-04-05T02:40:55.781Z,22.17
2023-04-05T02:45:59.761Z,25.73
2023-04-05T02:51:05.275Z,23.92
2023-04-05T02:56:09.734Z,21.25
2023-04-05T03:01:19.622Z,19.27
2023-04-05T03:06:26.557Z,21.80
2023-04-05T03:11:31.214Z,23.77
2023-04-05T03:16:40.201Z,23.50
2023-04-05T03:21:54.845Z,26.30
2023-04-05T03:27:09.001Z,26.48
2023-04-05T03:32:32.881Z,25.98
2023-04-05T03:37:46.534Z,19.83
2023-04-05T03:42:51.397Z,22.52
2023-04-05T03:47:55.918Z,24.00
2023-04-05T03:53:01.611Z,26.85
2023-04-05T03:58:06.279Z,29.92
2023-04-05T04:03:14.104Z,29.20
2023-04-05T04:08:23.391Z,24.02
2023-04-05T04:13:27.445Z,25.63
2023-04-05T04:18:47.302Z,27.00
2023-04-05T04:24:09.542Z,31.45
2023-04-05T04:29:33.631Z,28.50
2023-04-05T04:34:56.020Z,25.88
2023-04-05T04:40:39.990Z,29.45
2023-04-05T04:46:06.739Z,30.73
2023-04-05T04:51:18.470Z,25.60
2023-04-05T04:56:23.755Z,20.15
2023-04-05T05:01:28.702Z,25.88
2023-04-05T05:06:32.748Z,17.13
2023-04-05T05:11:38.292Z,19.45
2023-04-05T05:16:45.871Z,18.80
2023-04-05T05:21:50.259Z,18.20
2023-04-05T05:26:55.736Z,20.17
2023-04-05T05:31:59.703Z,22.23
2023-04-05T05:37:03.666Z,17.63
2023-04-05T05:42:09.092Z,20.33
2023-04-05T05:47:13.160Z,24.10
2023-04-05T05:52:17.231Z,21.85
2023-04-05T05:57:23.301Z,22.67
2023-04-05T06:02:27.614Z,22.83
2023-04-05T06:07:31.768Z,20.35
2023-04-05T06:12:37.171Z,21.20
2023-04-05T06:17:42.804Z,22.50
2023-04-05T06:22:46.814Z,22.42
2023-04-05T06:27:52.281Z,23.92
2023-04-05T06:32:56.298Z,23.80
2023-04-05T06:38:00.393Z,24.30
2023-04-05T06:43:06.084Z,19.92
2023-04-05T06:53:18.324Z,22.52
2023-04-05T06:58:24.511Z,22.98
2023-04-05T07:03:28.641Z,23.20
2023-04-05T07:08:34.123Z,19.58
2023-04-05T07:13:39.830Z,27.33
2023-04-05T07:18:43.804Z,27.95
2023-04-05T07:23:47.711Z,18.05
2023-04-05T07:28:53.576Z,23.95
2023-04-05T07:33:58.286Z,22.77
2023-04-05T07:39:02.445Z,19.30
2023-04-05T07:44:07.890Z,24.48
2023-04-05T07:49:11.928Z,15.55
2023-04-05T07:54:15.890Z,11.88
2023-04-05T07:59:21.180Z,10.75
2023-04-05T08:09:30.704Z,14.73
2023-04-05T08:14:37.075Z,13.60
2023-04-05T08:19:40.993Z,11.23
2023-04-05T08:24:45.078Z,13.60
2023-04-05T08:29:50.709Z,9.02
2023-04-05T08:34:54.643Z,15.50
2023-04-05T08:39:58.935Z,11.32
2023-04-05T08:45:05.540Z,14.02
2023-04-05T08:50:13.653Z,12.88
2023-04-05T08:55:18.305Z,16.23
2023-04-05T09:00:23.963Z,8.20
2023-04-05T09:05:28.523Z,7.35
2023-04-05T09:10:32.989Z,10.35
2023-04-05T09:15:40.359Z,8.27
2023-04-05T09:20:44.461Z,9.38
2023-04-05T09:25:52.735Z,9.93
2023-04-05T09:30:58.101Z,9.48
2023-04-05T09:36:02.155Z,9.75
2023-04-05T09:41:10.611Z,10.57
2023-04-05T09:46:31.312Z,10.10
2023-04-05T09:51:37.002Z,9.82
2023-04-05T09:56:57.018Z,8.57
2023-04-05T10:02:03.980Z,10.07
2023-04-05T10:07:08.673Z,18.63
2023-04-05T10:12:19.617Z,9.88
2023-04-05T10:17:32.837Z,9.68
2023-04-05T10:22:42.328Z,9.18
2023-04-05T10:27:49.579Z,13.38
2023-04-05T10:33:12.617Z,7.97
2023-04-05T10:38:25.215Z,10.98
2023-04-05T10:43:30.343Z,11.13
2023-04-05T10:48:53.881Z,7.43
2023-04-05T10:53:58.198Z,9.60
2023-04-05T10:59:03.768Z,15.07
2023-04-05T11:04:15.153Z,7.68
2023-04-05T11:09:20.980Z,7.45
2023-04-05T11:14:26.540Z,8.15
2023-04-05T11:19:52.404Z,10.77
2023-04-05T11:24:58.374Z,10.23
2023-04-05T11:30:03.436Z,7.63
2023-04-05T11:35:14.140Z,6.53
2023-04-05T11:40:29.660Z,10.77
2023-04-05T11:45:35.215Z,8.70
2023-04-05T11:50:42.813Z,7.22
2023-04-05T11:55:50.619Z,12.90
2023-04-05T12:01:01.935Z,8.95
2023-04-05T12:06:08.915Z,14.68
2023-04-05T12:11:13.603Z,8.57
2023-04-05T12:16:17.659Z,10.18
2023-04-05T12:21:24.385Z,7.22
2023-04-05T12:26:28.993Z,9.25
2023-04-05T12:31:40.359Z,11.52
2023-04-05T12:36:48.621Z,9.27
2023-04-05T12:42:00.988Z,9.60
2023-04-05T12:47:09.226Z,9.43
2023-04-05T12:52:20.902Z,8.75
2023-04-05T12:57:31.520Z,13.13
2023-04-05T13:02:35.966Z,5.70
2023-04-05T13:07:41.509Z,8.88
2023-04-05T13:12:45.608Z,7.35
2023-04-05T13:17:52.142Z,9.98
2023-04-05T13:22:57.588Z,10.27
2023-04-05T13:28:01.645Z,5.50
2023-04-05T13:33:05.926Z,9.60
2023-04-05T13:38:11.364Z,9.93
2023-04-05T13:43:15.432Z,9.48
2023-04-05T13:48:19.343Z,9.52
2023-04-05T13:53:27.244Z,7.32
2023-04-05T13:58:32.424Z,10.15
2023-04-05T14:03:36.624Z,5.68
2023-04-05T14:08:42.172Z,7.05
2023-04-05T14:13:46.124Z,5.63
2023-04-05T14:18:50.416Z,10.32
2023-04-05T14:23:57.207Z,5.82
2023-04-05T14:29:01.615Z,5.05
2023-04-05T14:34:05.852Z,9.27
2023-04-05T14:39:11.598Z,8.07
2023-04-05T14:49:19.628Z,7.40
2023-04-05T14:54:25.373Z,6.63
2023-04-05T14:59:31.008Z,8.82
2023-04-05T15:04:35.443Z,8.30
2023-04-05T15:09:41.033Z,8.30
2023-04-05T15:14:45.932Z,8.52
2023-04-05T15:19:50.113Z,7.60
2023-04-05T15:24:57.095Z,11.35
2023-04-05T15:30:01.365Z,10.13
2023-04-05T15:35:06.187Z,6.57
2023-04-05T15:40:12.514Z,8.63
2023-04-05T15:45:16.593Z,7.80
2023-04-05T15:50:21.856Z,8.95
2023-04-05T15:55:27.308Z,8.03
2023-04-05T16:00:32.812Z,5.68
2023-04-05T16:05:36.841Z,9.85
2023-04-05T16:10:42.907Z,6.00
2023-04-05T16:15:47.018Z,12.55
2023-04-05T16:20:52.109Z,7.85
2023-04-05T16:25:57.676Z,7.00
2023-04-05T16:31:01.766Z,10.10
2023-04-05T16:36:06.374Z,10.15
2023-04-05T16:41:12.088Z,7.45
2023-04-05T16:46:16.097Z,8.02
2023-04-05T16:51:20.262Z,7.28
2023-04-05T16:56:25.964Z,10.18
2023-04-05T17:01:30.617Z,9.43
2023-04-05T17:06:35.027Z,11.88
2023-04-05T17:11:40.569Z,12.98
2023-04-05T17:16:44.708Z,11.00
2023-04-05T17:21:48.885Z,12.95
2023-04-05T17:26:54.515Z,10.77
2023-04-05T17:31:58.779Z,9.05
2023-04-05T17:37:03.105Z,14.20
2023-04-05T17:42:08.644Z,12.82
2023-04-05T17:47:13.431Z,13.98
2023-04-05T17:52:18.286Z,18.25
2023-04-05T17:57:23.855Z,13.02
2023-04-05T18:02:28.559Z,17.98
2023-04-05T18:07:36.020Z,23.13
2023-04-05T18:12:41.503Z,26.98
2023-04-05T18:17:46.243Z,27.90
2023-04-05T18:22:50.528Z,27.60
2023-04-05T18:27:56.530Z,26.73
2023-04-05T18:33:00.812Z,29.65
2023-04-05T18:38:06.486Z,23.27
2023-04-05T18:43:12.037Z,24.98
2023-04-05T18:48:17.387Z,30.20
2023-04-05T18:53:21.470Z,29.67
2023-04-05T18:58:26.962Z,34.10
2023-04-05T19:03:31.216Z,40.08
2023-04-05T19:08:35.460Z,36.85
2023-04-05T19:13:41.477Z,37.58
2023-04-05T19:18:45.947Z,39.05
2023-04-05T19:23:50.452Z,39.15
2023-04-05T19:28:56.265Z,49.25
2023-04-05T19:39:04.636Z,64.38
2023-04-05T19:44:12.492Z,40.58
2023-04-05T19:49:34.154Z,34.25
2023-04-05T19:54:38.280Z,36.55
2023-04-05T19:59:44.236Z,56.40
2023-04-05T20:04:48.681Z,52.50
2023-04-05T20:09:54.742Z,38.13
2023-04-05T20:15:00.362Z,30.33
2023-04-05T20:20:07.379Z,29.50
2023-04-05T20:25:38.263Z,24.25
2023-04-05T20:30:44.189Z,28.52
2023-04-05T20:35:48.834Z,27.27
2023-04-05T20:40:52.948Z,20.52
2023-04-05T20:45:58.376Z,22.80
2023-04-05T20:51:05.979Z,20.95
2023-04-05T20:56:11.255Z,24.67
2023-04-05T21:01:16.815Z,27.65
2023-04-05T21:06:21.293Z,27.02
2023-04-05T21:11:26.424Z,36.42
2023-04-05T21:16:32.059Z,37.50
2023-04-05T21:21:36.081Z,40.08
2023-04-05T21:26:40.120Z,41.90
2023-04-05T21:31:45.610Z,45.88
2023-04-05T21:36:49.768Z,50.10
2023-04-05T21:41:53.894Z,58.17
2023-04-05T21:47:00.187Z,59.75
2023-04-05T21:52:04.502Z,55.08
2023-04-05T21:57:08.522Z,55.38
2023-04-05T22:02:13.974Z,58.53
2023-04-05T22:07:18.344Z,47.67
2023-04-05T22:12:22.617Z,48.33
2023-04-05T22:17:28.058Z,39.70
2023-04-05T22:22:32.073Z,42.50
2023-04-05T22:27:36.327Z,36.50
2023-04-05T22:32:42.312Z,37.85
2023-04-05T22:37:46.383Z,38.42
2023-04-05T22:42:50.656Z,33.83
2023-04-05T22:47:56.121Z,34.28
2023-04-05T22:53:00.330Z,38.08
2023-04-05T22:58:04.874Z,37.22
2023-04-05T23:03:10.321Z,29.95
2023-04-05T23:08:14.376Z,29.17
2023-04-05T23:13:18.433Z,29.70
2023-04-05T23:18:23.899Z,33.38
2023-04-05T23:23:27.902Z,34.85
2023-04-05T23:28:31.938Z,24.48
2023-04-05T23:33:37.399Z,30.80
2023-04-05T23:38:41.355Z,31.80
2023-04-05T23:43:46.115Z,30.20
2023-04-05T23:48:51.464Z,27.42
2023-04-05T23:53:55.461Z,27.67
2023-04-05T23:58:59.441Z,24.10
